OIBS METAR and TAF | Updated Today

OIBS METAR

Sirri Island Airport

Observation time: 3:30 hr. ago

OIBS 061700Z 27004KT 6000 NSC 21/14 Q1016

Need help? Read our tutorial on how to read METARs or read the parsed version below.

Sirri Island Airport (OIBS) METAR

  • Weather conditions on Mon, 06 Feb 2023 17:00:00 +0000 (3:30 hr. ago):
  • Present conditions: Dry
  • Clouds: No significant clouds are observed
  • Visibility: 6000 meters
  • Wind: 270 degrees at 4 knots
  • Temperature: 21 celsius
  • Dew point: 14 celsius
  • Pressure: 1016 millibars
  • Remarks: None


Useful to know...